sensor_id;sensor_type;location;lat;lon;timestamp;P1;durP1;ratioP1;P2;durP2;ratioP2
68792;SDS011;55778;54.346;10.210;2022-09-17T00:01:40;24.65;;;3.30;;
68792;SDS011;55778;54.346;10.210;2022-09-17T00:04:05;24.02;;;3.72;;
68792;SDS011;55778;54.346;10.210;2022-09-17T00:06:32;19.48;;;2.72;;
68792;SDS011;55778;54.346;10.210;2022-09-17T00:08:59;16.70;;;2.47;;
68792;SDS011;55778;54.346;10.210;2022-09-17T00:11:25;21.02;;;2.30;;
68792;SDS011;55778;54.346;10.210;2022-09-17T00:13:53;20.77;;;3.30;;
68792;SDS011;55778;54.346;10.210;2022-09-17T00:18:50;20.80;;;2.67;;
68792;SDS011;55778;54.346;10.210;2022-09-17T00:21:16;22.30;;;2.67;;
68792;SDS011;55778;54.346;10.210;2022-09-17T00:23:43;22.35;;;2.58;;
68792;SDS011;55778;54.346;10.210;2022-09-17T00:26:08;18.35;;;3.05;;
68792;SDS011;55778;54.346;10.210;2022-09-17T00:28:34;19.55;;;3.30;;
68792;SDS011;55778;54.346;10.210;2022-09-17T00:30:59;16.95;;;2.40;;
68792;SDS011;55778;54.346;10.210;2022-09-17T00:33:24;14.15;;;2.58;;
68792;SDS011;55778;54.346;10.210;2022-09-17T00:35:57;20.88;;;2.97;;
68792;SDS011;55778;54.346;10.210;2022-09-17T00:38:24;16.08;;;2.65;;
68792;SDS011;55778;54.346;10.210;2022-09-17T00:40:49;17.80;;;3.15;;
68792;SDS011;55778;54.346;10.210;2022-09-17T00:43:30;22.02;;;2.60;;
68792;SDS011;55778;54.346;10.210;2022-09-17T00:48:54;24.85;;;3.10;;
68792;SDS011;55778;54.346;10.210;2022-09-17T00:51:25;23.98;;;2.50;;
68792;SDS011;55778;54.346;10.210;2022-09-17T00:54:04;14.68;;;2.80;;
68792;SDS011;55778;54.346;10.210;2022-09-17T00:56:32;20.20;;;2.97;;
68792;SDS011;55778;54.346;10.210;2022-09-17T00:59:00;18.85;;;2.35;;
68792;SDS011;55778;54.346;10.210;2022-09-17T01:01:26;17.08;;;1.90;;
68792;SDS011;55778;54.346;10.210;2022-09-17T01:03:51;15.70;;;2.47;;
68792;SDS011;55778;54.346;10.210;2022-09-17T01:06:32;14.68;;;2.72;;
68792;SDS011;55778;54.346;10.210;2022-09-17T01:09:33;13.90;;;2.20;;
68792;SDS011;55778;54.346;10.210;2022-09-17T01:12:27;19.80;;;3.15;;
68792;SDS011;55778;54.346;10.210;2022-09-17T01:15:32;23.65;;;2.47;;
68792;SDS011;55778;54.346;10.210;2022-09-17T01:18:18;17.40;;;2.72;;
68792;SDS011;55778;54.346;10.210;2022-09-17T01:32:05;16.17;;;4.18;;
68792;SDS011;55778;54.346;10.210;2022-09-17T01:37:34;22.67;;;2.67;;
68792;SDS011;55778;54.346;10.210;2022-09-17T01:40:07;16.40;;;2.60;;
68792;SDS011;55778;54.346;10.210;2022-09-17T01:42:46;19.15;;;3.35;;
68792;SDS011;55778;54.346;10.210;2022-09-17T01:47:57;14.88;;;2.78;;
68792;SDS011;55778;54.346;10.210;2022-09-17T01:50:49;18.00;;;3.30;;
68792;SDS011;55778;54.346;10.210;2022-09-17T01:53:20;23.60;;;3.80;;
68792;SDS011;55778;54.346;10.210;2022-09-17T01:55:50;21.00;;;3.25;;
68792;SDS011;55778;54.346;10.210;2022-09-17T01:58:21;14.13;;;2.13;;
68792;SDS011;55778;54.346;10.210;2022-09-17T02:00:53;13.38;;;2.40;;
68792;SDS011;55778;54.346;10.210;2022-09-17T02:03:27;15.15;;;2.50;;
68792;SDS011;55778;54.346;10.210;2022-09-17T02:06:00;14.02;;;2.35;;
68792;SDS011;55778;54.346;10.210;2022-09-17T02:08:33;15.18;;;2.67;;
68792;SDS011;55778;54.346;10.210;2022-09-17T02:11:05;12.73;;;2.33;;
68792;SDS011;55778;54.346;10.210;2022-09-17T02:13:37;16.00;;;2.83;;
68792;SDS011;55778;54.346;10.210;2022-09-17T02:16:10;10.73;;;2.30;;
68792;SDS011;55778;54.346;10.210;2022-09-17T02:18:45;15.30;;;2.53;;
68792;SDS011;55778;54.346;10.210;2022-09-17T02:21:29;19.13;;;2.10;;
68792;SDS011;55778;54.346;10.210;2022-09-17T02:29:34;19.48;;;3.47;;
68792;SDS011;55778;54.346;10.210;2022-09-17T02:32:01;15.32;;;2.25;;
68792;SDS011;55778;54.346;10.210;2022-09-17T02:34:28;11.77;;;2.20;;
68792;SDS011;55778;54.346;10.210;2022-09-17T02:36:54;21.25;;;2.42;;
68792;SDS011;55778;54.346;10.210;2022-09-17T02:39:21;20.27;;;2.38;;
68792;SDS011;55778;54.346;10.210;2022-09-17T02:46:56;19.38;;;2.85;;
68792;SDS011;55778;54.346;10.210;2022-09-17T02:55:11;15.85;;;2.10;;
68792;SDS011;55778;54.346;10.210;2022-09-17T03:00:18;11.40;;;2.30;;
68792;SDS011;55778;54.346;10.210;2022-09-17T03:02:49;16.87;;;3.10;;
68792;SDS011;55778;54.346;10.210;2022-09-17T03:05:24;11.70;;;1.70;;
68792;SDS011;55778;54.346;10.210;2022-09-17T03:07:53;17.00;;;2.10;;
68792;SDS011;55778;54.346;10.210;2022-09-17T03:10:20;14.80;;;1.58;;
68792;SDS011;55778;54.346;10.210;2022-09-17T03:12:45;17.80;;;2.05;;
68792;SDS011;55778;54.346;10.210;2022-09-17T03:15:11;15.85;;;2.33;;
68792;SDS011;55778;54.346;10.210;2022-09-17T03:17:36;11.02;;;1.88;;
68792;SDS011;55778;54.346;10.210;2022-09-17T03:20:02;11.50;;;1.73;;
68792;SDS011;55778;54.346;10.210;2022-09-17T03:22:27;12.23;;;1.90;;
68792;SDS011;55778;54.346;10.210;2022-09-17T03:24:53;14.13;;;2.60;;
68792;SDS011;55778;54.346;10.210;2022-09-17T03:27:18;15.52;;;2.10;;
68792;SDS011;55778;54.346;10.210;2022-09-17T03:29:43;11.82;;;1.63;;
68792;SDS011;55778;54.346;10.210;2022-09-17T03:32:09;13.13;;;2.58;;
68792;SDS011;55778;54.346;10.210;2022-09-17T03:34:34;14.85;;;2.50;;
68792;SDS011;55778;54.346;10.210;2022-09-17T03:36:59;13.73;;;2.55;;
68792;SDS011;55778;54.346;10.210;2022-09-17T03:39:25;11.93;;;2.35;;
68792;SDS011;55778;54.346;10.210;2022-09-17T03:41:50;12.15;;;1.90;;
68792;SDS011;55778;54.346;10.210;2022-09-17T03:44:16;9.57;;;2.00;;
68792;SDS011;55778;54.346;10.210;2022-09-17T03:46:43;17.92;;;2.17;;
68792;SDS011;55778;54.346;10.210;2022-09-17T03:49:09;17.48;;;2.28;;
68792;SDS011;55778;54.346;10.210;2022-09-17T03:51:35;11.27;;;1.40;;
68792;SDS011;55778;54.346;10.210;2022-09-17T03:54:00;15.23;;;2.80;;
68792;SDS011;55778;54.346;10.210;2022-09-17T03:56:27;18.02;;;1.95;;
68792;SDS011;55778;54.346;10.210;2022-09-17T03:58:55;14.43;;;1.98;;
68792;SDS011;55778;54.346;10.210;2022-09-17T04:03:47;8.00;;;1.50;;
68792;SDS011;55778;54.346;10.210;2022-09-17T04:06:12;16.92;;;2.78;;
68792;SDS011;55778;54.346;10.210;2022-09-17T04:08:38;27.85;;;3.70;;
68792;SDS011;55778;54.346;10.210;2022-09-17T04:11:03;13.80;;;2.03;;
68792;SDS011;55778;54.346;10.210;2022-09-17T04:13:29;10.73;;;1.80;;
68792;SDS011;55778;54.346;10.210;2022-09-17T04:15:54;13.82;;;2.08;;
68792;SDS011;55778;54.346;10.210;2022-09-17T04:18:20;14.93;;;2.92;;
68792;SDS011;55778;54.346;10.210;2022-09-17T04:20:45;14.27;;;2.30;;
68792;SDS011;55778;54.346;10.210;2022-09-17T04:23:10;12.75;;;1.77;;
68792;SDS011;55778;54.346;10.210;2022-09-17T04:25:37;14.80;;;1.95;;
68792;SDS011;55778;54.346;10.210;2022-09-17T04:28:03;19.88;;;2.30;;
68792;SDS011;55778;54.346;10.210;2022-09-17T04:30:28;13.00;;;1.77;;
68792;SDS011;55778;54.346;10.210;2022-09-17T04:32:53;16.63;;;2.30;;
68792;SDS011;55778;54.346;10.210;2022-09-17T04:35:19;15.93;;;1.95;;
68792;SDS011;55778;54.346;10.210;2022-09-17T04:37:50;14.68;;;2.47;;
68792;SDS011;55778;54.346;10.210;2022-09-17T04:40:16;15.27;;;2.42;;
68792;SDS011;55778;54.346;10.210;2022-09-17T04:42:42;18.30;;;2.25;;
68792;SDS011;55778;54.346;10.210;2022-09-17T04:45:07;15.48;;;2.30;;
68792;SDS011;55778;54.346;10.210;2022-09-17T04:47:33;16.05;;;2.30;;
68792;SDS011;55778;54.346;10.210;2022-09-17T04:49:58;14.20;;;2.13;;
68792;SDS011;55778;54.346;10.210;2022-09-17T04:52:24;13.18;;;2.00;;
68792;SDS011;55778;54.346;10.210;2022-09-17T04:54:49;13.38;;;1.63;;
68792;SDS011;55778;54.346;10.210;2022-09-17T04:57:14;14.80;;;2.92;;
68792;SDS011;55778;54.346;10.210;2022-09-17T04:59:40;14.13;;;2.45;;
68792;SDS011;55778;54.346;10.210;2022-09-17T05:02:05;16.10;;;2.20;;
68792;SDS011;55778;54.346;10.210;2022-09-17T05:04:30;18.00;;;2.03;;
68792;SDS011;55778;54.346;10.210;2022-09-17T05:06:56;14.77;;;1.77;;
68792;SDS011;55778;54.346;10.210;2022-09-17T05:09:21;18.80;;;2.25;;
68792;SDS011;55778;54.346;10.210;2022-09-17T05:11:46;9.15;;;2.00;;
68792;SDS011;55778;54.346;10.210;2022-09-17T05:14:12;16.75;;;2.13;;
68792;SDS011;55778;54.346;10.210;2022-09-17T05:16:38;16.25;;;3.13;;
68792;SDS011;55778;54.346;10.210;2022-09-17T05:19:03;18.10;;;1.70;;
68792;SDS011;55778;54.346;10.210;2022-09-17T05:21:29;18.98;;;2.25;;
68792;SDS011;55778;54.346;10.210;2022-09-17T05:23:54;14.82;;;2.40;;
68792;SDS011;55778;54.346;10.210;2022-09-17T05:26:20;16.92;;;2.67;;
68792;SDS011;55778;54.346;10.210;2022-09-17T05:28:46;13.93;;;1.73;;
68792;SDS011;55778;54.346;10.210;2022-09-17T05:31:11;16.30;;;1.85;;
68792;SDS011;55778;54.346;10.210;2022-09-17T05:33:37;16.38;;;2.08;;
68792;SDS011;55778;54.346;10.210;2022-09-17T05:36:02;9.57;;;2.20;;
68792;SDS011;55778;54.346;10.210;2022-09-17T05:38:28;13.25;;;2.35;;
68792;SDS011;55778;54.346;10.210;2022-09-17T05:40:54;15.95;;;1.80;;
68792;SDS011;55778;54.346;10.210;2022-09-17T05:43:19;8.32;;;1.48;;
68792;SDS011;55778;54.346;10.210;2022-09-17T05:45:45;15.18;;;2.22;;
68792;SDS011;55778;54.346;10.210;2022-09-17T05:48:11;18.70;;;2.25;;
68792;SDS011;55778;54.346;10.210;2022-09-17T05:50:38;16.08;;;1.85;;
68792;SDS011;55778;54.346;10.210;2022-09-17T05:53:04;12.65;;;2.15;;
68792;SDS011;55778;54.346;10.210;2022-09-17T05:55:31;11.10;;;1.75;;
68792;SDS011;55778;54.346;10.210;2022-09-17T05:57:57;20.50;;;2.10;;
68792;SDS011;55778;54.346;10.210;2022-09-17T06:00:23;10.25;;;1.92;;
68792;SDS011;55778;54.346;10.210;2022-09-17T06:02:55;11.73;;;1.58;;
68792;SDS011;55778;54.346;10.210;2022-09-17T06:05:22;14.88;;;2.03;;
68792;SDS011;55778;54.346;10.210;2022-09-17T06:07:48;19.67;;;2.25;;
68792;SDS011;55778;54.346;10.210;2022-09-17T06:10:13;13.18;;;1.85;;
68792;SDS011;55778;54.346;10.210;2022-09-17T06:12:39;14.70;;;2.55;;
68792;SDS011;55778;54.346;10.210;2022-09-17T06:15:04;9.20;;;1.77;;
68792;SDS011;55778;54.346;10.210;2022-09-17T06:17:34;13.63;;;1.63;;
68792;SDS011;55778;54.346;10.210;2022-09-17T06:22:26;13.27;;;1.92;;
68792;SDS011;55778;54.346;10.210;2022-09-17T06:24:51;12.60;;;2.35;;
68792;SDS011;55778;54.346;10.210;2022-09-17T06:27:17;12.07;;;2.55;;
68792;SDS011;55778;54.346;10.210;2022-09-17T06:29:42;13.98;;;2.30;;
68792;SDS011;55778;54.346;10.210;2022-09-17T06:32:08;16.02;;;2.00;;
68792;SDS011;55778;54.346;10.210;2022-09-17T06:34:37;12.07;;;1.92;;
68792;SDS011;55778;54.346;10.210;2022-09-17T06:37:04;12.88;;;2.20;;
68792;SDS011;55778;54.346;10.210;2022-09-17T06:39:30;10.32;;;1.90;;
68792;SDS011;55778;54.346;10.210;2022-09-17T06:41:55;15.23;;;1.63;;
68792;SDS011;55778;54.346;10.210;2022-09-17T06:44:21;12.70;;;2.35;;
68792;SDS011;55778;54.346;10.210;2022-09-17T06:46:49;15.65;;;2.67;;
68792;SDS011;55778;54.346;10.210;2022-09-17T06:49:17;14.90;;;2.17;;
68792;SDS011;55778;54.346;10.210;2022-09-17T06:51:43;18.02;;;2.50;;
68792;SDS011;55778;54.346;10.210;2022-09-17T06:54:09;15.88;;;2.05;;
68792;SDS011;55778;54.346;10.210;2022-09-17T06:56:34;18.33;;;2.47;;
68792;SDS011;55778;54.346;10.210;2022-09-17T06:59:00;10.93;;;1.75;;
68792;SDS011;55778;54.346;10.210;2022-09-17T07:01:26;17.52;;;2.65;;
68792;SDS011;55778;54.346;10.210;2022-09-17T07:03:51;13.50;;;3.00;;
68792;SDS011;55778;54.346;10.210;2022-09-17T07:06:17;13.90;;;2.20;;
68792;SDS011;55778;54.346;10.210;2022-09-17T07:08:43;13.77;;;2.75;;
68792;SDS011;55778;54.346;10.210;2022-09-17T07:11:09;14.43;;;1.83;;
68792;SDS011;55778;54.346;10.210;2022-09-17T07:13:34;10.88;;;2.08;;
68792;SDS011;55778;54.346;10.210;2022-09-17T07:16:00;13.80;;;1.65;;
68792;SDS011;55778;54.346;10.210;2022-09-17T07:18:27;11.60;;;1.60;;
68792;SDS011;55778;54.346;10.210;2022-09-17T07:20:53;10.60;;;1.70;;
68792;SDS011;55778;54.346;10.210;2022-09-17T07:23:27;12.18;;;1.75;;
68792;SDS011;55778;54.346;10.210;2022-09-17T07:25:54;8.73;;;1.50;;
68792;SDS011;55778;54.346;10.210;2022-09-17T07:28:22;11.52;;;1.55;;
68792;SDS011;55778;54.346;10.210;2022-09-17T07:30:48;12.60;;;1.92;;
68792;SDS011;55778;54.346;10.210;2022-09-17T07:33:18;13.00;;;1.90;;
68792;SDS011;55778;54.346;10.210;2022-09-17T07:38:19;9.25;;;1.48;;
68792;SDS011;55778;54.346;10.210;2022-09-17T07:40:51;7.38;;;1.48;;
68792;SDS011;55778;54.346;10.210;2022-09-17T07:43:28;7.15;;;1.17;;
68792;SDS011;55778;54.346;10.210;2022-09-17T07:45:56;9.45;;;1.67;;
68792;SDS011;55778;54.346;10.210;2022-09-17T07:48:23;9.63;;;1.65;;
68792;SDS011;55778;54.346;10.210;2022-09-17T07:50:52;7.78;;;1.33;;
68792;SDS011;55778;54.346;10.210;2022-09-17T07:53:21;5.72;;;1.20;;
68792;SDS011;55778;54.346;10.210;2022-09-17T07:55:58;9.57;;;1.60;;
68792;SDS011;55778;54.346;10.210;2022-09-17T07:58:31;6.68;;;1.20;;
68792;SDS011;55778;54.346;10.210;2022-09-17T08:01:01;11.13;;;1.48;;
68792;SDS011;55778;54.346;10.210;2022-09-17T08:03:28;9.93;;;1.40;;
68792;SDS011;55778;54.346;10.210;2022-09-17T08:05:53;11.52;;;1.63;;
68792;SDS011;55778;54.346;10.210;2022-09-17T08:08:30;11.20;;;1.85;;
68792;SDS011;55778;54.346;10.210;2022-09-17T08:11:00;10.27;;;1.83;;
68792;SDS011;55778;54.346;10.210;2022-09-17T08:13:29;15.93;;;2.33;;
68792;SDS011;55778;54.346;10.210;2022-09-17T08:16:01;9.15;;;1.73;;
68792;SDS011;55778;54.346;10.210;2022-09-17T08:18:29;11.20;;;1.52;;
68792;SDS011;55778;54.346;10.210;2022-09-17T08:20:55;11.02;;;2.15;;
68792;SDS011;55778;54.346;10.210;2022-09-17T08:23:22;8.43;;;1.40;;
68792;SDS011;55778;54.346;10.210;2022-09-17T08:25:51;12.75;;;2.15;;
68792;SDS011;55778;54.346;10.210;2022-09-17T08:28:20;10.63;;;1.95;;
68792;SDS011;55778;54.346;10.210;2022-09-17T08:30:46;10.98;;;1.83;;
68792;SDS011;55778;54.346;10.210;2022-09-17T08:33:13;7.70;;;1.50;;
68792;SDS011;55778;54.346;10.210;2022-09-17T08:35:39;9.23;;;1.42;;
68792;SDS011;55778;54.346;10.210;2022-09-17T08:38:04;10.88;;;1.60;;
68792;SDS011;55778;54.346;10.210;2022-09-17T08:40:31;6.72;;;1.40;;
68792;SDS011;55778;54.346;10.210;2022-09-17T08:45:26;8.95;;;1.58;;
68792;SDS011;55778;54.346;10.210;2022-09-17T08:47:54;10.18;;;1.75;;
68792;SDS011;55778;54.346;10.210;2022-09-17T08:50:32;13.90;;;1.70;;
68792;SDS011;55778;54.346;10.210;2022-09-17T08:56:05;7.00;;;1.30;;
68792;SDS011;55778;54.346;10.210;2022-09-17T09:10:19;6.05;;;1.23;;
68792;SDS011;55778;54.346;10.210;2022-09-17T09:12:29;9.43;;;1.58;;
68792;SDS011;55778;54.346;10.210;2022-09-17T09:15:00;6.20;;;1.35;;
68792;SDS011;55778;54.346;10.210;2022-09-17T09:17:32;9.02;;;1.55;;
68792;SDS011;55778;54.346;10.210;2022-09-17T09:20:03;7.50;;;1.15;;
68792;SDS011;55778;54.346;10.210;2022-09-17T09:22:32;9.05;;;1.23;;
68792;SDS011;55778;54.346;10.210;2022-09-17T09:25:23;7.18;;;1.40;;
68792;SDS011;55778;54.346;10.210;2022-09-17T09:28:20;12.30;;;1.30;;
68792;SDS011;55778;54.346;10.210;2022-09-17T09:33:16;7.93;;;1.45;;
68792;SDS011;55778;54.346;10.210;2022-09-17T09:35:48;15.40;;;1.88;;
68792;SDS011;55778;54.346;10.210;2022-09-17T09:48:58;11.02;;;2.70;;
68792;SDS011;55778;54.346;10.210;2022-09-17T09:57:31;7.68;;;2.03;;
68792;SDS011;55778;54.346;10.210;2022-09-17T10:06:01;9.32;;;1.90;;
68792;SDS011;55778;54.346;10.210;2022-09-17T10:08:29;6.32;;;1.42;;
68792;SDS011;55778;54.346;10.210;2022-09-17T10:10:57;5.77;;;1.20;;
68792;SDS011;55778;54.346;10.210;2022-09-17T10:13:35;7.28;;;1.48;;
68792;SDS011;55778;54.346;10.210;2022-09-17T10:18:50;10.48;;;1.75;;
68792;SDS011;55778;54.346;10.210;2022-09-17T10:21:43;9.13;;;1.70;;
68792;SDS011;55778;54.346;10.210;2022-09-17T10:26:51;8.50;;;1.80;;
68792;SDS011;55778;54.346;10.210;2022-09-17T10:29:25;5.85;;;1.08;;
68792;SDS011;55778;54.346;10.210;2022-09-17T10:31:52;10.20;;;1.63;;
68792;SDS011;55778;54.346;10.210;2022-09-17T10:34:26;6.50;;;1.45;;
68792;SDS011;55778;54.346;10.210;2022-09-17T10:36:53;5.47;;;1.10;;
68792;SDS011;55778;54.346;10.210;2022-09-17T10:41:54;5.63;;;1.73;;
68792;SDS011;55778;54.346;10.210;2022-09-17T10:44:32;7.20;;;1.98;;
68792;SDS011;55778;54.346;10.210;2022-09-17T10:47:41;9.73;;;1.58;;
68792;SDS011;55778;54.346;10.210;2022-09-17T10:49:58;6.13;;;1.30;;
68792;SDS011;55778;54.346;10.210;2022-09-17T10:52:28;9.40;;;1.45;;
68792;SDS011;55778;54.346;10.210;2022-09-17T10:58:08;6.55;;;0.90;;
68792;SDS011;55778;54.346;10.210;2022-09-17T11:17:16;4.10;;;1.10;;
68792;SDS011;55778;54.346;10.210;2022-09-17T11:20:14;4.32;;;0.90;;
68792;SDS011;55778;54.346;10.210;2022-09-17T11:25:58;11.82;;;2.00;;
68792;SDS011;55778;54.346;10.210;2022-09-17T11:36:42;9.05;;;1.98;;
68792;SDS011;55778;54.346;10.210;2022-09-17T11:39:38;7.50;;;1.42;;
68792;SDS011;55778;54.346;10.210;2022-09-17T11:42:23;10.32;;;1.90;;
68792;SDS011;55778;54.346;10.210;2022-09-17T11:44:56;5.53;;;1.30;;
68792;SDS011;55778;54.346;10.210;2022-09-17T11:47:37;8.05;;;1.70;;
68792;SDS011;55778;54.346;10.210;2022-09-17T11:50:10;8.95;;;1.60;;
68792;SDS011;55778;54.346;10.210;2022-09-17T11:52:46;9.98;;;1.45;;
68792;SDS011;55778;54.346;10.210;2022-09-17T11:55:43;9.13;;;2.28;;
68792;SDS011;55778;54.346;10.210;2022-09-17T11:58:15;6.47;;;1.50;;
68792;SDS011;55778;54.346;10.210;2022-09-17T12:01:10;8.52;;;1.40;;
68792;SDS011;55778;54.346;10.210;2022-09-17T12:03:39;6.57;;;1.30;;
68792;SDS011;55778;54.346;10.210;2022-09-17T12:06:13;7.22;;;1.40;;
68792;SDS011;55778;54.346;10.210;2022-09-17T12:08:50;8.13;;;1.10;;
68792;SDS011;55778;54.346;10.210;2022-09-17T12:11:18;5.95;;;1.30;;
68792;SDS011;55778;54.346;10.210;2022-09-17T12:13:53;6.60;;;0.85;;
68792;SDS011;55778;54.346;10.210;2022-09-17T12:16:26;6.00;;;1.17;;
68792;SDS011;55778;54.346;10.210;2022-09-17T12:21:37;2.53;;;1.07;;
68792;SDS011;55778;54.346;10.210;2022-09-17T12:24:20;5.10;;;1.13;;
68792;SDS011;55778;54.346;10.210;2022-09-17T12:31:57;5.03;;;1.25;;
68792;SDS011;55778;54.346;10.210;2022-09-17T12:37:17;5.25;;;1.52;;
68792;SDS011;55778;54.346;10.210;2022-09-17T12:47:58;7.93;;;2.05;;
68792;SDS011;55778;54.346;10.210;2022-09-17T13:01:29;16.13;;;5.72;;
68792;SDS011;55778;54.346;10.210;2022-09-17T13:04:10;9.35;;;4.03;;
68792;SDS011;55778;54.346;10.210;2022-09-17T13:20:46;4.50;;;2.25;;
68792;SDS011;55778;54.346;10.210;2022-09-17T13:23:29;6.13;;;2.15;;
68792;SDS011;55778;54.346;10.210;2022-09-17T13:25:58;5.85;;;2.00;;
68792;SDS011;55778;54.346;10.210;2022-09-17T13:31:02;17.27;;;6.32;;
68792;SDS011;55778;54.346;10.210;2022-09-17T13:39:07;32.00;;;12.95;;
68792;SDS011;55778;54.346;10.210;2022-09-17T13:41:36;13.00;;;5.82;;
68792;SDS011;55778;54.346;10.210;2022-09-17T13:44:06;7.45;;;3.72;;
68792;SDS011;55778;54.346;10.210;2022-09-17T13:46:34;6.72;;;2.53;;
68792;SDS011;55778;54.346;10.210;2022-09-17T13:49:03;4.43;;;2.05;;
68792;SDS011;55778;54.346;10.210;2022-09-17T13:54:05;6.40;;;1.88;;
68792;SDS011;55778;54.346;10.210;2022-09-17T13:56:36;5.38;;;1.00;;
68792;SDS011;55778;54.346;10.210;2022-09-17T13:59:28;7.57;;;2.53;;
68792;SDS011;55778;54.346;10.210;2022-09-17T14:02:00;5.88;;;1.88;;
68792;SDS011;55778;54.346;10.210;2022-09-17T14:04:32;4.63;;;1.30;;
68792;SDS011;55778;54.346;10.210;2022-09-17T14:09:54;2.58;;;0.63;;
68792;SDS011;55778;54.346;10.210;2022-09-17T14:15:03;4.50;;;1.05;;
68792;SDS011;55778;54.346;10.210;2022-09-17T14:17:49;3.10;;;0.85;;
68792;SDS011;55778;54.346;10.210;2022-09-17T14:20:17;1.92;;;1.02;;
68792;SDS011;55778;54.346;10.210;2022-09-17T14:22:52;6.00;;;1.40;;
68792;SDS011;55778;54.346;10.210;2022-09-17T14:25:18;4.43;;;0.82;;
68792;SDS011;55778;54.346;10.210;2022-09-17T14:30:23;2.35;;;1.15;;
68792;SDS011;55778;54.346;10.210;2022-09-17T14:35:39;3.95;;;1.30;;
68792;SDS011;55778;54.346;10.210;2022-09-17T14:40:41;2.25;;;0.90;;
68792;SDS011;55778;54.346;10.210;2022-09-17T14:43:09;1.23;;;0.70;;
68792;SDS011;55778;54.346;10.210;2022-09-17T14:45:44;3.53;;;1.20;;
68792;SDS011;55778;54.346;10.210;2022-09-17T14:50:51;5.85;;;2.15;;
68792;SDS011;55778;54.346;10.210;2022-09-17T14:53:18;3.78;;;1.90;;
68792;SDS011;55778;54.346;10.210;2022-09-17T14:55:47;7.25;;;3.00;;
68792;SDS011;55778;54.346;10.210;2022-09-17T14:58:25;4.53;;;1.85;;
68792;SDS011;55778;54.346;10.210;2022-09-17T15:00:55;2.17;;;0.80;;
68792;SDS011;55778;54.346;10.210;2022-09-17T15:03:22;2.15;;;1.23;;
68792;SDS011;55778;54.346;10.210;2022-09-17T15:05:48;2.08;;;0.85;;
68792;SDS011;55778;54.346;10.210;2022-09-17T15:08:18;2.53;;;0.80;;
68792;SDS011;55778;54.346;10.210;2022-09-17T15:13:14;3.08;;;0.90;;
68792;SDS011;55778;54.346;10.210;2022-09-17T15:15:55;3.35;;;1.00;;
68792;SDS011;55778;54.346;10.210;2022-09-17T15:18:31;7.95;;;2.90;;
68792;SDS011;55778;54.346;10.210;2022-09-17T15:21:00;2.10;;;0.90;;
68792;SDS011;55778;54.346;10.210;2022-09-17T15:23:28;2.33;;;0.80;;
68792;SDS011;55778;54.346;10.210;2022-09-17T15:25:57;2.55;;;0.50;;
68792;SDS011;55778;54.346;10.210;2022-09-17T15:28:29;2.17;;;0.70;;
68792;SDS011;55778;54.346;10.210;2022-09-17T15:30:59;2.65;;;1.00;;
68792;SDS011;55778;54.346;10.210;2022-09-17T15:33:24;5.60;;;0.80;;
68792;SDS011;55778;54.346;10.210;2022-09-17T15:36:17;4.70;;;0.95;;
68792;SDS011;55778;54.346;10.210;2022-09-17T15:38:51;5.00;;;1.33;;
68792;SDS011;55778;54.346;10.210;2022-09-17T15:43:42;4.05;;;0.80;;
68792;SDS011;55778;54.346;10.210;2022-09-17T15:46:26;4.80;;;0.80;;
68792;SDS011;55778;54.346;10.210;2022-09-17T15:48:54;2.28;;;0.75;;
68792;SDS011;55778;54.346;10.210;2022-09-17T15:51:21;4.13;;;1.33;;
68792;SDS011;55778;54.346;10.210;2022-09-17T15:53:58;4.88;;;1.00;;
68792;SDS011;55778;54.346;10.210;2022-09-17T15:56:25;8.27;;;0.90;;
68792;SDS011;55778;54.346;10.210;2022-09-17T15:59:01;2.58;;;0.80;;
68792;SDS011;55778;54.346;10.210;2022-09-17T16:08:57;7.70;;;2.13;;
68792;SDS011;55778;54.346;10.210;2022-09-17T16:11:26;6.70;;;2.40;;
68792;SDS011;55778;54.346;10.210;2022-09-17T16:13:55;12.10;;;2.60;;
68792;SDS011;55778;54.346;10.210;2022-09-17T16:16:23;6.15;;;2.20;;
68792;SDS011;55778;54.346;10.210;2022-09-17T16:18:51;4.43;;;1.73;;
68792;SDS011;55778;54.346;10.210;2022-09-17T16:21:18;4.72;;;1.90;;
68792;SDS011;55778;54.346;10.210;2022-09-17T16:23:43;6.25;;;1.80;;
68792;SDS011;55778;54.346;10.210;2022-09-17T16:26:11;1.42;;;0.88;;
68792;SDS011;55778;54.346;10.210;2022-09-17T16:28:41;1.67;;;0.60;;
68792;SDS011;55778;54.346;10.210;2022-09-17T16:31:07;1.67;;;0.52;;
68792;SDS011;55778;54.346;10.210;2022-09-17T16:33:36;5.78;;;1.15;;
68792;SDS011;55778;54.346;10.210;2022-09-17T16:36:01;3.92;;;0.88;;
68792;SDS011;55778;54.346;10.210;2022-09-17T16:38:28;4.32;;;1.33;;
68792;SDS011;55778;54.346;10.210;2022-09-17T16:40:54;4.18;;;1.20;;
68792;SDS011;55778;54.346;10.210;2022-09-17T16:43:19;6.78;;;1.40;;
68792;SDS011;55778;54.346;10.210;2022-09-17T16:45:58;1.73;;;1.20;;
68792;SDS011;55778;54.346;10.210;2022-09-17T16:48:24;2.15;;;1.10;;
68792;SDS011;55778;54.346;10.210;2022-09-17T16:50:52;2.65;;;1.40;;
68792;SDS011;55778;54.346;10.210;2022-09-17T16:53:17;3.08;;;1.30;;
68792;SDS011;55778;54.346;10.210;2022-09-17T16:55:43;2.88;;;1.38;;
68792;SDS011;55778;54.346;10.210;2022-09-17T16:58:08;4.25;;;1.60;;
68792;SDS011;55778;54.346;10.210;2022-09-17T17:00:33;6.78;;;2.70;;
68792;SDS011;55778;54.346;10.210;2022-09-17T17:03:01;6.85;;;3.20;;
68792;SDS011;55778;54.346;10.210;2022-09-17T17:05:27;3.65;;;2.58;;
68792;SDS011;55778;54.346;10.210;2022-09-17T17:07:56;4.28;;;2.40;;
68792;SDS011;55778;54.346;10.210;2022-09-17T17:10:22;2.17;;;1.63;;
68792;SDS011;55778;54.346;10.210;2022-09-17T17:12:50;6.68;;;2.58;;
68792;SDS011;55778;54.346;10.210;2022-09-17T17:15:16;2.70;;;1.48;;
68792;SDS011;55778;54.346;10.210;2022-09-17T17:17:42;7.32;;;2.60;;
68792;SDS011;55778;54.346;10.210;2022-09-17T17:20:08;5.07;;;4.03;;
68792;SDS011;55778;54.346;10.210;2022-09-17T17:22:37;3.92;;;2.33;;
68792;SDS011;55778;54.346;10.210;2022-09-17T17:25:04;4.13;;;1.95;;
68792;SDS011;55778;54.346;10.210;2022-09-17T17:27:31;1.90;;;1.17;;
68792;SDS011;55778;54.346;10.210;2022-09-17T17:29:58;3.90;;;1.80;;
68792;SDS011;55778;54.346;10.210;2022-09-17T17:32:25;2.10;;;1.50;;
68792;SDS011;55778;54.346;10.210;2022-09-17T17:34:53;5.20;;;2.13;;
68792;SDS011;55778;54.346;10.210;2022-09-17T17:37:19;7.35;;;3.00;;
68792;SDS011;55778;54.346;10.210;2022-09-17T17:39:47;4.78;;;2.78;;
68792;SDS011;55778;54.346;10.210;2022-09-17T17:42:12;4.95;;;3.17;;
68792;SDS011;55778;54.346;10.210;2022-09-17T17:44:38;9.85;;;3.95;;
68792;SDS011;55778;54.346;10.210;2022-09-17T17:47:03;3.78;;;2.33;;
68792;SDS011;55778;54.346;10.210;2022-09-17T17:49:30;3.55;;;1.77;;
68792;SDS011;55778;54.346;10.210;2022-09-17T17:51:56;1.95;;;1.40;;
68792;SDS011;55778;54.346;10.210;2022-09-17T17:54:22;3.28;;;1.58;;
68792;SDS011;55778;54.346;10.210;2022-09-17T17:56:47;2.78;;;1.70;;
68792;SDS011;55778;54.346;10.210;2022-09-17T17:59:12;3.47;;;1.77;;
68792;SDS011;55778;54.346;10.210;2022-09-17T18:01:38;3.40;;;1.70;;
68792;SDS011;55778;54.346;10.210;2022-09-17T18:04:04;4.07;;;1.80;;
68792;SDS011;55778;54.346;10.210;2022-09-17T18:06:32;5.18;;;3.63;;
68792;SDS011;55778;54.346;10.210;2022-09-17T18:08:59;5.18;;;3.17;;
68792;SDS011;55778;54.346;10.210;2022-09-17T18:11:25;6.50;;;2.60;;
68792;SDS011;55778;54.346;10.210;2022-09-17T18:13:52;4.95;;;2.70;;
68792;SDS011;55778;54.346;10.210;2022-09-17T18:16:19;6.68;;;2.70;;